createdAt,value
2019-06-20T00:01:49.001Z,8.93
2019-06-20T00:04:18.605Z,7.10
2019-06-20T00:06:48.310Z,6.63
2019-06-20T00:09:17.831Z,9.50
2019-06-20T00:11:47.479Z,9.03
2019-06-20T00:14:17.177Z,17.57
2019-06-20T00:16:46.793Z,6.70
2019-06-20T00:19:16.520Z,8.70
2019-06-20T00:21:46.166Z,7.13
2019-06-20T00:24:15.706Z,6.43
2019-06-20T00:26:45.233Z,8.00
2019-06-20T00:29:14.773Z,6.50
2019-06-20T00:31:44.691Z,9.93
2019-06-20T00:34:14.257Z,9.40
2019-06-20T00:36:43.846Z,8.63
2019-06-20T00:39:13.486Z,6.37
2019-06-20T00:41:43.445Z,6.57
2019-06-20T00:44:13.250Z,7.33
2019-06-20T00:46:43.043Z,7.37
2019-06-20T00:49:12.879Z,7.17
2019-06-20T00:51:42.452Z,7.40
2019-06-20T00:54:11.993Z,7.13
2019-06-20T00:56:41.588Z,7.97
2019-06-20T00:59:11.181Z,14.20
2019-06-20T01:01:41.049Z,7.20
2019-06-20T01:04:11.015Z,9.40
2019-06-20T01:06:40.552Z,8.07
2019-06-20T01:09:10.838Z,7.83
2019-06-20T01:11:40.454Z,9.10
2019-06-20T01:14:10.209Z,10.40
2019-06-20T01:16:39.851Z,8.50
2019-06-20T01:19:09.586Z,9.00
2019-06-20T01:21:39.234Z,10.17
2019-06-20T01:24:09.103Z,7.80
2019-06-20T01:26:39.492Z,9.17
2019-06-20T01:29:09.076Z,11.40
2019-06-20T01:31:38.640Z,8.73
2019-06-20T01:34:08.326Z,7.63
2019-06-20T01:36:38.005Z,14.53
2019-06-20T01:39:08.853Z,8.43
2019-06-20T01:41:38.803Z,8.80
2019-06-20T01:44:08.391Z,8.97
2019-06-20T01:46:38.065Z,10.07
2019-06-20T01:49:08.084Z,8.63
2019-06-20T01:51:37.671Z,7.87
2019-06-20T01:54:07.318Z,9.90
2019-06-20T01:56:36.894Z,8.43
2019-06-20T01:59:06.672Z,12.00
2019-06-20T02:01:36.332Z,7.43
2019-06-20T02:04:06.114Z,16.43
2019-06-20T02:06:36.560Z,8.23
2019-06-20T02:09:09.039Z,13.53
2019-06-20T02:11:40.007Z,9.60
2019-06-20T02:14:10.219Z,9.63
2019-06-20T02:16:39.883Z,12.17
2019-06-20T02:19:09.525Z,20.83
2019-06-20T02:21:39.150Z,8.93
2019-06-20T02:24:08.722Z,10.03
2019-06-20T02:26:38.492Z,9.63
2019-06-20T02:29:08.068Z,12.60
2019-06-20T02:31:38.040Z,9.37
2019-06-20T02:34:08.936Z,8.10
2019-06-20T02:36:38.461Z,7.43
2019-06-20T02:39:08.804Z,9.40
2019-06-20T02:41:38.469Z,7.27
2019-06-20T02:44:28.411Z,7.80
2019-06-20T02:46:39.488Z,8.50
2019-06-20T02:49:09.101Z,7.47
2019-06-20T02:51:39.075Z,6.73
2019-06-20T02:54:08.570Z,7.03
2019-06-20T02:56:38.715Z,10.33
2019-06-20T02:59:08.345Z,7.33
2019-06-20T03:01:37.984Z,8.77
2019-06-20T03:04:07.674Z,7.27
2019-06-20T03:06:37.264Z,7.33
2019-06-20T03:09:07.988Z,8.73
2019-06-20T03:11:37.630Z,7.70
2019-06-20T03:14:09.833Z,7.60
2019-06-20T03:16:39.309Z,8.17
2019-06-20T03:19:08.991Z,7.73
2019-06-20T03:21:39.005Z,10.13
2019-06-20T03:24:08.618Z,7.53
2019-06-20T03:26:38.258Z,7.97
2019-06-20T03:29:07.949Z,8.20
2019-06-20T03:31:37.585Z,9.50
2019-06-20T03:34:07.261Z,7.67
2019-06-20T03:36:36.851Z,7.80
2019-06-20T03:39:08.278Z,9.53
2019-06-20T03:41:37.995Z,7.07
2019-06-20T03:44:07.665Z,6.77
2019-06-20T03:46:37.213Z,8.10
2019-06-20T03:49:06.794Z,9.43
2019-06-20T03:51:36.381Z,8.13
2019-06-20T03:54:06.284Z,13.33
2019-06-20T03:56:35.920Z,9.23
2019-06-20T03:59:05.653Z,8.30
2019-06-20T04:01:35.167Z,7.30
2019-06-20T04:04:05.206Z,8.13
2019-06-20T04:06:35.794Z,13.00
2019-06-20T04:09:07.097Z,7.87
2019-06-20T04:11:36.639Z,9.43
2019-06-20T04:14:06.244Z,10.60
2019-06-20T04:16:35.802Z,8.20
2019-06-20T04:19:05.550Z,9.30
2019-06-20T04:21:35.060Z,8.07
2019-06-20T04:24:04.646Z,8.20
2019-06-20T04:26:35.667Z,8.57
2019-06-20T04:29:05.274Z,9.73
2019-06-20T04:31:34.817Z,17.40
2019-06-20T04:34:04.508Z,13.77
2019-06-20T04:36:34.067Z,9.10
2019-06-20T04:39:18.373Z,10.00
2019-06-20T04:41:36.330Z,9.60
2019-06-20T04:44:06.059Z,12.53
2019-06-20T04:46:52.716Z,7.97
2019-06-20T04:49:22.245Z,13.70
2019-06-20T04:51:51.792Z,9.20
2019-06-20T04:54:21.400Z,8.03
2019-06-20T04:56:50.971Z,7.90
2019-06-20T04:59:20.499Z,9.50
2019-06-20T05:01:50.228Z,7.20
2019-06-20T05:04:19.852Z,8.57
2019-06-20T05:06:54.124Z,8.43
2019-06-20T05:09:23.773Z,8.80
2019-06-20T05:11:53.289Z,7.83
2019-06-20T05:14:22.873Z,10.63
2019-06-20T05:16:52.369Z,7.63
2019-06-20T05:19:22.372Z,10.53
2019-06-20T05:21:52.023Z,11.67
2019-06-20T05:24:21.604Z,7.40
2019-06-20T05:26:51.276Z,8.97
2019-06-20T05:29:20.881Z,8.13
2019-06-20T05:31:50.415Z,7.87
2019-06-20T05:34:19.895Z,8.23
2019-06-20T05:36:49.909Z,8.83
2019-06-20T05:39:19.454Z,10.70
2019-06-20T05:41:48.959Z,7.87
2019-06-20T05:44:18.772Z,7.50
2019-06-20T05:46:48.304Z,6.87
2019-06-20T05:49:18.966Z,7.00
2019-06-20T05:51:48.642Z,9.20
2019-06-20T05:54:18.151Z,6.77
2019-06-20T05:56:47.739Z,9.33
2019-06-20T05:59:17.379Z,7.20
2019-06-20T06:01:47.069Z,12.10
2019-06-20T06:04:16.931Z,6.90
2019-06-20T06:06:47.574Z,7.87
2019-06-20T06:09:17.526Z,7.63
2019-06-20T06:11:47.239Z,7.97
2019-06-20T06:14:16.900Z,9.00
2019-06-20T06:16:46.443Z,16.97
2019-06-20T06:19:16.184Z,15.77
2019-06-20T06:21:45.731Z,9.67
2019-06-20T06:24:15.292Z,10.70
2019-06-20T06:26:44.930Z,8.03
2019-06-20T06:29:16.708Z,20.53
2019-06-20T06:31:47.197Z,9.33
2019-06-20T06:34:16.843Z,9.10
2019-06-20T06:36:46.453Z,13.67
2019-06-20T06:39:15.957Z,14.00
2019-06-20T06:41:45.643Z,13.90
2019-06-20T06:44:15.201Z,16.03
2019-06-20T06:46:53.197Z,13.10
2019-06-20T06:49:15.962Z,9.87
2019-06-20T06:51:45.884Z,9.27
2019-06-20T06:54:15.472Z,11.30
2019-06-20T06:56:45.107Z,11.17
2019-06-20T06:59:14.670Z,11.67
2019-06-20T07:01:44.802Z,18.53
2019-06-20T07:04:14.322Z,12.73
2019-06-20T07:06:43.938Z,11.37
2019-06-20T07:09:13.535Z,15.83
2019-06-20T07:11:43.062Z,14.80
2019-06-20T07:14:12.747Z,16.40
2019-06-20T07:16:42.421Z,16.30
2019-06-20T07:19:12.101Z,13.20
2019-06-20T07:21:41.721Z,18.13
2019-06-20T07:24:11.789Z,20.60
2019-06-20T07:26:41.308Z,24.83
2019-06-20T07:29:10.919Z,26.60
2019-06-20T07:31:40.464Z,38.47
2019-06-20T07:34:10.042Z,40.47
2019-06-20T07:36:40.059Z,38.33
2019-06-20T07:39:10.634Z,42.27
2019-06-20T07:41:40.267Z,40.03
2019-06-20T07:44:10.077Z,44.93
2019-06-20T07:46:39.580Z,44.63
2019-06-20T07:49:09.257Z,46.97
2019-06-20T07:51:38.967Z,41.53
2019-06-20T07:54:08.611Z,48.63
2019-06-20T07:56:38.208Z,47.43
2019-06-20T07:59:07.891Z,42.03
2019-06-20T08:01:37.511Z,44.13
2019-06-20T08:04:07.209Z,42.20
2019-06-20T08:06:36.864Z,41.43
2019-06-20T08:09:09.116Z,47.43
2019-06-20T08:11:38.781Z,43.03
2019-06-20T08:14:08.468Z,40.33
2019-06-20T08:16:38.058Z,48.73
2019-06-20T08:19:07.726Z,44.23
2019-06-20T08:21:37.965Z,47.90
2019-06-20T08:24:07.620Z,39.57
2019-06-20T08:26:37.210Z,46.27
2019-06-20T08:29:18.698Z,43.70
2019-06-20T08:31:38.262Z,54.00
2019-06-20T08:34:07.973Z,35.70
2019-06-20T08:36:37.610Z,37.77
2019-06-20T08:39:10.317Z,40.40
2019-06-20T08:41:40.021Z,36.07
2019-06-20T08:44:09.783Z,39.63
2019-06-20T08:46:39.418Z,35.00
2019-06-20T08:49:09.104Z,37.87
2019-06-20T08:51:39.217Z,38.37
2019-06-20T08:54:08.996Z,33.20
2019-06-20T08:56:38.576Z,38.60
2019-06-20T08:59:23.205Z,31.53
2019-06-20T09:01:39.677Z,38.83
2019-06-20T09:04:09.285Z,33.43
2019-06-20T09:06:39.565Z,32.40
2019-06-20T09:09:09.811Z,38.10
2019-06-20T09:11:39.342Z,30.20
2019-06-20T09:14:08.965Z,30.73
2019-06-20T09:16:38.472Z,34.60
2019-06-20T09:19:08.029Z,30.77
2019-06-20T09:21:37.588Z,40.70
2019-06-20T09:24:07.339Z,31.13
2019-06-20T09:26:36.951Z,33.30
2019-06-20T09:29:07.662Z,27.80
2019-06-20T09:31:37.198Z,22.30
2019-06-20T09:34:06.848Z,26.07
2019-06-20T09:36:36.478Z,25.80
2019-06-20T09:39:08.084Z,25.63
2019-06-20T09:41:37.641Z,21.40
2019-06-20T09:44:07.308Z,23.17
2019-06-20T09:46:36.879Z,28.33
2019-06-20T09:49:06.423Z,25.20
2019-06-20T09:51:39.162Z,24.53
2019-06-20T09:54:09.282Z,29.53
2019-06-20T09:56:38.811Z,24.13
2019-06-20T09:59:09.107Z,14.70
2019-06-20T10:01:38.727Z,18.37
2019-06-20T10:04:08.466Z,20.33
2019-06-20T10:06:43.446Z,15.53
2019-06-20T10:09:13.035Z,15.73
2019-06-20T10:11:42.639Z,17.60
2019-06-20T10:14:13.681Z,15.10
2019-06-20T10:16:47.202Z,16.07
2019-06-20T10:19:14.627Z,17.30
2019-06-20T10:21:46.746Z,16.43
2019-06-20T10:24:17.616Z,24.43
2019-06-20T10:26:48.033Z,14.53
2019-06-20T10:29:19.245Z,15.83
2019-06-20T10:31:49.049Z,11.07
2019-06-20T10:34:18.758Z,9.60
2019-06-20T10:36:48.520Z,9.90
2019-06-20T10:39:18.139Z,9.20
2019-06-20T10:41:48.504Z,11.83
2019-06-20T10:44:18.140Z,9.00
2019-06-20T10:46:49.140Z,8.03
2019-06-20T10:49:18.774Z,8.10
2019-06-20T10:51:49.556Z,9.07
2019-06-20T10:54:19.203Z,11.10
2019-06-20T10:56:48.929Z,8.57
2019-06-20T10:59:18.664Z,12.60
2019-06-20T11:01:48.431Z,9.90
2019-06-20T11:04:18.293Z,10.60
2019-06-20T11:06:49.834Z,12.03
2019-06-20T11:09:20.684Z,10.97
2019-06-20T11:11:50.255Z,19.80
2019-06-20T11:14:19.944Z,22.33
2019-06-20T11:16:49.549Z,23.37
2019-06-20T11:19:19.269Z,14.13
2019-06-20T11:21:48.923Z,17.23
2019-06-20T11:24:18.500Z,22.57
2019-06-20T11:26:48.184Z,16.30
2019-06-20T11:29:18.250Z,19.20
2019-06-20T11:31:49.497Z,15.10
2019-06-20T11:34:19.107Z,15.33
2019-06-20T11:36:48.730Z,13.97
2019-06-20T11:39:18.306Z,17.77
2019-06-20T11:41:48.537Z,17.67
2019-06-20T11:44:18.504Z,17.77
2019-06-20T11:46:48.110Z,23.43
2019-06-20T11:49:17.672Z,16.70
2019-06-20T11:51:47.385Z,16.77
2019-06-20T11:54:17.026Z,16.80
2019-06-20T11:56:47.089Z,21.50
2019-06-20T11:59:17.200Z,18.33
2019-06-20T12:01:47.229Z,16.83
2019-06-20T12:04:17.156Z,28.47
2019-06-20T12:06:47.128Z,16.80
2019-06-20T12:09:16.796Z,20.53
2019-06-20T12:11:46.760Z,14.43
2019-06-20T12:14:16.405Z,13.67
2019-06-20T12:16:46.434Z,16.80
2019-06-20T12:19:16.167Z,12.53
2019-06-20T12:21:46.912Z,18.33
2019-06-20T12:24:16.495Z,13.80
2019-06-20T12:26:46.879Z,12.50
2019-06-20T12:29:16.793Z,12.33
2019-06-20T12:31:46.532Z,12.27
2019-06-20T12:34:16.133Z,13.07
2019-06-20T12:36:46.618Z,24.80
2019-06-20T12:39:16.447Z,11.70
2019-06-20T12:41:46.021Z,13.10
2019-06-20T12:44:16.512Z,10.93
2019-06-20T12:46:47.067Z,9.07
2019-06-20T12:49:16.674Z,10.90
2019-06-20T12:51:47.027Z,17.83
2019-06-20T12:54:16.931Z,10.60
2019-06-20T12:56:46.431Z,16.70
2019-06-20T12:59:16.092Z,10.03
2019-06-20T13:01:47.776Z,9.30
2019-06-20T13:04:18.500Z,7.50
2019-06-20T13:06:49.478Z,7.60
2019-06-20T13:09:19.180Z,8.43
2019-06-20T13:11:49.276Z,15.50
2019-06-20T13:14:19.216Z,9.20
2019-06-20T13:16:50.190Z,9.80
2019-06-20T13:19:19.879Z,9.27
2019-06-20T13:21:49.958Z,9.53
2019-06-20T13:24:19.595Z,8.57
2019-06-20T13:26:50.691Z,8.37
2019-06-20T13:29:20.333Z,8.60
2019-06-20T13:32:02.064Z,10.03
2019-06-20T13:34:21.281Z,8.87
2019-06-20T13:36:51.142Z,10.07
2019-06-20T13:39:21.113Z,10.27
2019-06-20T13:41:50.711Z,12.93
2019-06-20T13:44:21.668Z,12.77
2019-06-20T13:46:51.754Z,10.33
2019-06-20T13:49:21.382Z,8.60
2019-06-20T13:51:51.026Z,9.03
2019-06-20T13:54:20.589Z,9.20
2019-06-20T13:56:50.153Z,8.87
2019-06-20T13:59:19.884Z,8.27
2019-06-20T14:01:49.476Z,8.57
2019-06-20T14:04:19.169Z,12.83
2019-06-20T14:06:49.726Z,10.33
2019-06-20T14:09:19.467Z,9.73
2019-06-20T14:11:49.057Z,11.47
2019-06-20T14:14:18.627Z,9.80
2019-06-20T14:16:48.375Z,11.03
2019-06-20T14:19:17.918Z,9.10
2019-06-20T14:21:47.873Z,7.97
2019-06-20T14:24:17.420Z,7.50
2019-06-20T14:26:48.208Z,7.50
2019-06-20T14:29:17.960Z,8.23
2019-06-20T14:31:47.537Z,8.60
2019-06-20T14:34:17.629Z,8.10
2019-06-20T14:36:49.154Z,7.43
2019-06-20T14:39:18.483Z,10.80
2019-06-20T14:41:48.669Z,7.33
2019-06-20T14:44:18.604Z,19.17
2019-06-20T14:46:48.105Z,8.80
2019-06-20T14:49:17.690Z,20.97
2019-06-20T14:51:48.507Z,8.80
2019-06-20T14:54:19.773Z,8.10
2019-06-20T14:56:49.804Z,6.87
2019-06-20T14:59:19.867Z,8.30
2019-06-20T15:01:50.616Z,7.97
2019-06-20T15:04:20.250Z,8.53
2019-06-20T15:06:50.338Z,8.23
2019-06-20T15:09:20.276Z,7.00
2019-06-20T15:11:51.253Z,7.27
2019-06-20T15:14:21.051Z,7.23
2019-06-20T15:16:51.259Z,6.00
2019-06-20T15:19:21.231Z,7.47
2019-06-20T15:21:52.103Z,6.90
2019-06-20T15:24:21.702Z,7.40
2019-06-20T15:26:52.454Z,8.27
2019-06-20T15:29:22.735Z,15.57
2019-06-20T15:31:52.640Z,7.30
2019-06-20T15:34:22.345Z,7.93
2019-06-20T15:36:53.330Z,7.73
2019-06-20T15:39:23.252Z,7.50
2019-06-20T15:41:54.077Z,6.80
2019-06-20T15:44:24.105Z,8.77
2019-06-20T15:46:53.614Z,7.50
2019-06-20T15:49:23.146Z,8.40
2019-06-20T15:51:52.737Z,7.80
2019-06-20T15:54:24.515Z,8.20
2019-06-20T15:56:53.510Z,10.17
2019-06-20T15:59:23.221Z,8.30
2019-06-20T16:01:53.564Z,8.30
2019-06-20T16:04:23.070Z,9.13
2019-06-20T16:06:53.837Z,7.67
2019-06-20T16:09:23.410Z,8.03
2019-06-20T16:11:52.914Z,6.93
2019-06-20T16:14:22.457Z,7.47
2019-06-20T16:16:52.013Z,6.67
2019-06-20T16:19:21.627Z,5.67
2019-06-20T16:21:51.170Z,7.23
2019-06-20T16:24:20.779Z,7.87
2019-06-20T16:26:53.729Z,9.83
2019-06-20T16:29:23.831Z,6.50
2019-06-20T16:31:53.341Z,7.63
2019-06-20T16:34:23.005Z,6.50
2019-06-20T16:36:53.020Z,8.43
2019-06-20T16:39:22.633Z,8.07
2019-06-20T16:41:52.260Z,7.47
2019-06-20T16:44:21.995Z,9.53
2019-06-20T16:46:51.597Z,8.10
2019-06-20T16:49:21.557Z,8.57
2019-06-20T16:51:51.623Z,17.13
2019-06-20T16:54:21.115Z,9.20
2019-06-20T16:56:50.731Z,9.63
2019-06-20T16:59:20.425Z,9.80
2019-06-20T17:01:50.028Z,15.07
2019-06-20T17:04:19.547Z,8.63
2019-06-20T17:06:49.095Z,8.13
2019-06-20T17:09:18.675Z,8.17
2019-06-20T17:11:48.237Z,31.47
2019-06-20T17:14:17.972Z,8.23
2019-06-20T17:16:47.612Z,7.90
2019-06-20T17:19:17.256Z,8.27
2019-06-20T17:21:46.847Z,10.77
2019-06-20T17:24:16.415Z,16.20
2019-06-20T17:26:46.004Z,10.47
2019-06-20T17:29:15.655Z,11.23
2019-06-20T17:31:45.325Z,17.20
2019-06-20T17:34:15.004Z,13.57
2019-06-20T17:36:44.977Z,13.90
2019-06-20T17:39:14.628Z,13.20
2019-06-20T17:41:54.886Z,15.33
2019-06-20T17:44:15.448Z,11.90
2019-06-20T17:46:45.063Z,13.17
2019-06-20T17:49:14.669Z,13.97
2019-06-20T17:51:44.309Z,12.30
2019-06-20T17:54:13.837Z,15.77
2019-06-20T17:56:43.477Z,17.20
2019-06-20T17:59:13.260Z,14.07
2019-06-20T18:01:42.781Z,17.23
2019-06-20T18:04:13.955Z,14.80
2019-06-20T18:06:43.795Z,15.47
2019-06-20T18:09:13.398Z,16.33
2019-06-20T18:11:42.973Z,24.67
2019-06-20T18:14:12.915Z,27.80
2019-06-20T18:16:42.433Z,16.23
2019-06-20T18:19:12.059Z,26.37
2019-06-20T18:21:41.797Z,16.10
2019-06-20T18:24:11.396Z,17.63
2019-06-20T18:26:41.003Z,22.83
2019-06-20T18:29:10.623Z,25.50
2019-06-20T18:31:42.344Z,30.40
2019-06-20T18:34:11.472Z,22.13
2019-06-20T18:36:43.426Z,20.80
2019-06-20T18:39:12.699Z,18.60
2019-06-20T18:41:42.207Z,17.83
2019-06-20T18:44:12.533Z,22.67
2019-06-20T18:46:42.143Z,15.30
2019-06-20T18:49:11.775Z,19.27
2019-06-20T18:51:41.537Z,17.07
2019-06-20T18:54:11.134Z,24.80
2019-06-20T18:56:40.706Z,14.50
2019-06-20T18:59:10.279Z,19.57
2019-06-20T19:01:39.953Z,15.30
2019-06-20T19:04:09.715Z,14.90
2019-06-20T19:06:39.385Z,13.30
2019-06-20T19:09:10.488Z,12.03
2019-06-20T19:11:40.280Z,12.23
2019-06-20T19:14:12.586Z,13.27
2019-06-20T19:16:41.351Z,11.10
2019-06-20T19:19:10.870Z,11.77
2019-06-20T19:21:40.768Z,12.27
2019-06-20T19:24:10.288Z,15.27
2019-06-20T19:26:40.168Z,12.80
2019-06-20T19:29:09.888Z,17.20
2019-06-20T19:31:39.598Z,18.27
2019-06-20T19:34:09.286Z,12.30
2019-06-20T19:36:38.818Z,16.67
2019-06-20T19:39:09.075Z,15.63
2019-06-20T19:41:38.596Z,17.70
2019-06-20T19:44:08.618Z,16.93
2019-06-20T19:46:38.207Z,22.07
2019-06-20T19:49:07.947Z,19.83
2019-06-20T19:51:37.623Z,18.53
2019-06-20T19:54:07.740Z,16.83
2019-06-20T19:56:37.424Z,21.30
2019-06-20T19:59:07.028Z,19.30
2019-06-20T20:01:36.913Z,20.40
2019-06-20T20:04:06.601Z,30.77
2019-06-20T20:06:36.418Z,22.23
2019-06-20T20:09:09.205Z,20.27
2019-06-20T20:11:38.848Z,18.40
2019-06-20T20:14:11.413Z,18.17
2019-06-20T20:16:40.759Z,24.03
2019-06-20T20:19:10.453Z,20.57
2019-06-20T20:21:40.728Z,20.20
2019-06-20T20:24:10.333Z,20.70
2019-06-20T20:26:40.006Z,29.20
2019-06-20T20:29:09.772Z,28.97
2019-06-20T20:31:39.374Z,18.23
2019-06-20T20:34:11.823Z,19.83
2019-06-20T20:36:41.307Z,23.60
2019-06-20T20:39:10.962Z,23.30
2019-06-20T20:41:40.654Z,25.23
2019-06-20T20:44:10.238Z,23.60
2019-06-20T20:46:39.946Z,18.87
2019-06-20T20:49:09.549Z,26.20
2019-06-20T20:51:39.154Z,22.20
2019-06-20T20:54:08.787Z,23.63
2019-06-20T20:56:38.393Z,21.60
2019-06-20T20:59:08.082Z,23.17
2019-06-20T21:01:37.591Z,28.97
2019-06-20T21:04:07.195Z,28.23
2019-06-20T21:06:37.308Z,23.77
2019-06-20T21:09:08.581Z,23.37
2019-06-20T21:11:38.166Z,21.70
2019-06-20T21:14:07.871Z,22.50
2019-06-20T21:16:37.459Z,24.43
2019-06-20T21:19:07.395Z,16.80
2019-06-20T21:21:37.377Z,21.80
2019-06-20T21:24:06.980Z,19.60
2019-06-20T21:26:48.793Z,22.63
2019-06-20T21:29:08.127Z,21.33
2019-06-20T21:31:37.832Z,22.07
2019-06-20T21:34:07.348Z,10.63
2019-06-20T21:36:36.883Z,7.53
2019-06-20T21:39:08.931Z,6.13
2019-06-20T21:41:38.446Z,6.73
2019-06-20T21:44:08.439Z,5.93
2019-06-20T21:46:37.993Z,5.80
2019-06-20T21:49:07.642Z,6.70
2019-06-20T21:51:37.334Z,7.80
2019-06-20T21:54:06.995Z,9.03
2019-06-20T21:56:36.504Z,10.93
2019-06-20T21:59:06.605Z,11.20
2019-06-20T22:01:37.166Z,15.03
2019-06-20T22:04:06.820Z,13.00
2019-06-20T22:06:36.532Z,14.37
2019-06-20T22:09:08.817Z,15.27
2019-06-20T22:11:38.404Z,12.40
2019-06-20T22:14:08.020Z,12.40
2019-06-20T22:16:37.675Z,14.87
2019-06-20T22:19:07.747Z,17.40
2019-06-20T22:21:37.791Z,22.27
2019-06-20T22:24:07.493Z,25.30
2019-06-20T22:26:37.020Z,35.93
2019-06-20T22:29:06.618Z,24.03
2019-06-20T22:31:36.226Z,27.10
2019-06-20T22:34:05.892Z,33.63
2019-06-20T22:36:40.321Z,29.43
2019-06-20T22:39:09.474Z,31.07
2019-06-20T22:41:39.026Z,29.77
2019-06-20T22:44:08.867Z,32.73
2019-06-20T22:46:38.375Z,36.20
2019-06-20T22:49:07.995Z,37.07
2019-06-20T22:51:37.591Z,37.20
2019-06-20T22:54:07.491Z,42.67
2019-06-20T22:56:37.005Z,37.70
2019-06-20T22:59:06.613Z,39.50
2019-06-20T23:01:36.132Z,36.97
2019-06-20T23:04:05.715Z,37.17
2019-06-20T23:06:37.069Z,36.57
2019-06-20T23:09:08.460Z,38.57
2019-06-20T23:11:38.042Z,47.87
2019-06-20T23:14:07.692Z,50.17
2019-06-20T23:16:37.232Z,54.00
2019-06-20T23:19:06.982Z,40.60
2019-06-20T23:21:36.694Z,48.30
2019-06-20T23:24:06.354Z,50.00
2019-06-20T23:26:35.952Z,48.60
2019-06-20T23:29:24.149Z,45.47
2019-06-20T23:31:56.523Z,46.87
2019-06-20T23:34:26.198Z,46.57
2019-06-20T23:37:11.415Z,44.43
2019-06-20T23:39:28.443Z,45.77
2019-06-20T23:41:58.091Z,44.70
2019-06-20T23:44:30.891Z,47.80
2019-06-20T23:47:00.441Z,41.77
2019-06-20T23:49:29.949Z,45.63
2019-06-20T23:52:01.316Z,45.93
2019-06-20T23:54:30.858Z,43.80
2019-06-20T23:57:00.367Z,36.50
2019-06-20T23:59:29.901Z,37.23
